Terminal Aerodrome Forecast
Issued by NWS Blacksburg, VA

Home | Current Version | Previous Version | Text Only | Print | Product List | Glossary On
Versions: 1 2 3 4 5 6 7 8 9 10 11 12 13 14 15 16 17 18 19 20 21 22 23 24 25 26 27 28 29 30 31 32 33 34 35 36 37 38 39 40
000
FTUS41 KRNK 152335
TAFROA
TAF
KROA 152335Z 1600/1624 15007KT P6SM OVC025
     FM160400 27005KT P6SM SCT025 BKN200
     FM160900 29003KT 5SM BR SCT070 BKN200
     FM161300 30004KT P6SM SCT035
     FM161800 31006KT P6SM BKN045=

USA.gov is the U.S. government's official web portal to all federal, state and local government web resources and services.